createdAt,value
2023-01-10T00:01:07.751Z,9.57
2023-01-10T00:03:35.748Z,8.03
2023-01-10T00:06:03.477Z,6.57
2023-01-10T00:08:32.663Z,5.53
2023-01-10T00:11:20.482Z,4.13
2023-01-10T00:13:47.233Z,7.73
2023-01-10T00:16:15.007Z,9.30
2023-01-10T00:18:42.747Z,7.10
2023-01-10T00:21:10.695Z,9.40
2023-01-10T00:23:39.770Z,12.33
2023-01-10T00:26:07.480Z,8.67
2023-01-10T00:28:35.349Z,2.87
2023-01-10T00:31:06.520Z,8.00
2023-01-10T00:33:34.938Z,11.47
2023-01-10T00:36:03.692Z,6.13
2023-01-10T00:38:32.931Z,6.57
2023-01-10T00:41:02.407Z,12.30
2023-01-10T00:43:47.980Z,10.90
2023-01-10T00:46:15.754Z,8.00
2023-01-10T00:48:43.452Z,10.83
2023-01-10T00:51:11.250Z,6.90
2023-01-10T00:53:39.046Z,8.70
2023-01-10T00:56:08.764Z,10.43
2023-01-10T00:58:36.599Z,8.03
2023-01-10T01:01:04.485Z,7.60
2023-01-10T01:03:32.388Z,9.47
2023-01-10T01:06:06.628Z,7.60
2023-01-10T01:08:34.447Z,7.87
2023-01-10T01:11:02.406Z,7.63
2023-01-10T01:13:31.519Z,13.70
2023-01-10T01:16:00.507Z,8.20
2023-01-10T01:18:29.365Z,13.60
2023-01-10T01:21:00.914Z,8.43
2023-01-10T01:23:29.159Z,11.10
2023-01-10T01:25:58.205Z,7.57
2023-01-10T01:28:26.276Z,12.37
2023-01-10T01:30:55.468Z,6.07
2023-01-10T01:33:23.363Z,9.17
2023-01-10T01:35:51.426Z,13.13
2023-01-10T01:38:19.239Z,6.37
2023-01-10T01:40:46.984Z,5.77
2023-01-10T01:43:25.024Z,9.60
2023-01-10T01:45:53.390Z,12.87
2023-01-10T01:48:33.331Z,12.83
2023-01-10T01:51:07.672Z,10.70
2023-01-10T01:53:41.177Z,9.73
2023-01-10T01:56:15.367Z,8.30
2023-01-10T01:58:48.617Z,7.33
2023-01-10T02:01:18.105Z,10.27
2023-01-10T02:03:51.158Z,12.20
2023-01-10T02:06:21.249Z,7.53
2023-01-10T02:09:00.328Z,12.17
2023-01-10T02:11:28.040Z,12.37
2023-01-10T02:13:56.293Z,13.10
2023-01-10T02:16:24.040Z,14.67
2023-01-10T02:18:53.184Z,12.13
2023-01-10T02:22:23.659Z,9.70
2023-01-10T02:25:14.632Z,7.30
2023-01-10T02:27:57.262Z,6.30
2023-01-10T02:30:47.782Z,16.50
2023-01-10T02:33:23.619Z,11.00
2023-01-10T02:36:06.783Z,9.40
2023-01-10T02:38:48.162Z,10.53
2023-01-10T02:41:24.845Z,11.40
2023-01-10T02:43:57.656Z,8.77
2023-01-10T02:46:29.526Z,14.27
2023-01-10T02:48:58.944Z,8.17
2023-01-10T02:51:29.553Z,11.13
2023-01-10T02:54:00.973Z,12.30
2023-01-10T02:57:08.904Z,11.10
2023-01-10T03:00:12.748Z,10.00
2023-01-10T03:02:58.564Z,9.63
2023-01-10T03:05:40.079Z,13.00
2023-01-10T03:08:18.300Z,11.30
2023-01-10T03:10:52.162Z,11.57
2023-01-10T03:13:24.060Z,12.70
2023-01-10T03:15:55.184Z,10.73
2023-01-10T03:18:26.349Z,11.67
2023-01-10T03:20:57.817Z,13.20
2023-01-10T03:23:26.630Z,13.77
2023-01-10T03:25:57.607Z,10.10
2023-01-10T03:28:29.563Z,10.00
2023-01-10T03:31:02.409Z,11.57
2023-01-10T03:33:33.100Z,13.77
2023-01-10T03:36:16.602Z,10.27
2023-01-10T03:38:48.677Z,13.80
2023-01-10T03:41:23.172Z,12.53
2023-01-10T03:44:15.772Z,9.63
2023-01-10T03:46:50.390Z,11.03
2023-01-10T03:49:21.588Z,10.07
2023-01-10T03:51:51.377Z,9.07
2023-01-10T03:54:19.350Z,8.83
2023-01-10T03:56:49.792Z,10.43
2023-01-10T03:59:18.567Z,8.43
2023-01-10T04:01:46.350Z,7.70
2023-01-10T04:04:14.324Z,8.23
2023-01-10T04:06:42.207Z,13.17
2023-01-10T04:09:11.653Z,12.57
2023-01-10T04:11:39.679Z,14.90
2023-01-10T04:14:07.520Z,5.23
2023-01-10T04:16:35.487Z,9.63
2023-01-10T04:19:03.308Z,10.23
2023-01-10T04:21:31.060Z,9.97
2023-01-10T04:23:58.750Z,8.47
2023-01-10T04:26:27.811Z,11.17
2023-01-10T04:28:55.508Z,10.07
2023-01-10T04:31:23.514Z,11.20
2023-01-10T04:33:51.345Z,7.13
2023-01-10T04:36:19.182Z,8.50
2023-01-10T04:38:46.977Z,14.73
2023-01-10T04:41:14.694Z,10.73
2023-01-10T04:43:43.934Z,14.83
2023-01-10T04:46:11.750Z,9.17
2023-01-10T04:48:42.255Z,8.87
2023-01-10T04:51:10.021Z,8.53
2023-01-10T04:53:37.850Z,10.27
2023-01-10T04:56:06.683Z,8.27
2023-01-10T04:58:35.119Z,9.70
2023-01-10T05:01:10.472Z,9.77
2023-01-10T05:03:38.763Z,12.63
2023-01-10T05:06:07.142Z,8.10
2023-01-10T05:08:35.222Z,11.23
2023-01-10T05:11:03.156Z,17.17
2023-01-10T05:13:30.957Z,11.77
2023-01-10T05:15:59.731Z,8.10
2023-01-10T05:18:30.116Z,14.83
2023-01-10T05:21:01.394Z,9.57
2023-01-10T05:23:29.718Z,12.90
2023-01-10T05:25:57.723Z,12.93
2023-01-10T05:28:25.996Z,7.47
2023-01-10T05:30:53.726Z,9.73
2023-01-10T05:33:21.436Z,14.03
2023-01-10T05:35:50.500Z,6.63
2023-01-10T05:38:18.507Z,11.73
2023-01-10T05:40:46.409Z,7.77
2023-01-10T05:43:14.255Z,14.33
2023-01-10T05:45:43.674Z,8.87
2023-01-10T05:48:11.498Z,5.33
2023-01-10T05:50:39.353Z,9.30
2023-01-10T05:53:08.430Z,11.13
2023-01-10T05:55:36.237Z,11.87
2023-01-10T05:58:04.131Z,8.67
2023-01-10T06:00:32.009Z,7.90
2023-01-10T06:03:00.098Z,8.33
2023-01-10T06:05:27.941Z,8.57
2023-01-10T06:07:55.713Z,6.40
2023-01-10T06:10:27.004Z,10.53
2023-01-10T06:12:55.744Z,10.80
2023-01-10T06:15:23.946Z,7.83
2023-01-10T06:17:51.695Z,8.93
2023-01-10T06:20:19.611Z,14.67
2023-01-10T06:22:47.320Z,11.77
2023-01-10T06:25:15.735Z,13.37
2023-01-10T06:27:45.278Z,10.73
2023-01-10T06:30:15.284Z,8.03
2023-01-10T06:32:43.411Z,11.73
2023-01-10T06:35:11.573Z,9.10
2023-01-10T06:37:39.572Z,14.03
2023-01-10T06:40:08.553Z,17.27
2023-01-10T06:42:36.697Z,16.17
2023-01-10T06:45:06.959Z,13.97
2023-01-10T06:47:35.004Z,13.57
2023-01-10T06:50:02.727Z,9.40
2023-01-10T06:52:30.562Z,14.20
2023-01-10T06:54:58.365Z,7.97
2023-01-10T06:57:28.301Z,15.23
2023-01-10T06:59:56.157Z,7.67
2023-01-10T07:02:25.468Z,13.00
2023-01-10T07:04:53.309Z,11.63
2023-01-10T07:07:21.243Z,13.23
2023-01-10T07:09:50.413Z,8.87
2023-01-10T07:12:18.207Z,10.83
2023-01-10T07:14:45.939Z,10.13
2023-01-10T07:17:13.640Z,9.53
2023-01-10T07:19:42.757Z,10.27
2023-01-10T07:22:10.768Z,16.00
2023-01-10T07:24:38.515Z,9.00
2023-01-10T07:27:06.365Z,9.33
2023-01-10T07:29:34.344Z,10.07
2023-01-10T07:32:02.108Z,8.27
2023-01-10T07:34:30.107Z,9.00
2023-01-10T07:36:59.241Z,12.30
2023-01-10T07:39:27.131Z,14.53
2023-01-10T07:41:55.417Z,10.83
2023-01-10T07:44:24.138Z,14.60
2023-01-10T07:46:52.026Z,9.63
2023-01-10T07:49:19.876Z,8.80
2023-01-10T07:51:47.603Z,13.40
2023-01-10T07:54:16.684Z,9.03
2023-01-10T07:56:44.479Z,9.07
2023-01-10T07:59:12.279Z,9.77
2023-01-10T08:01:40.044Z,10.70
2023-01-10T08:04:07.802Z,11.57
2023-01-10T08:06:35.615Z,11.43
2023-01-10T08:09:05.123Z,15.50
2023-01-10T08:11:34.376Z,10.07
2023-01-10T08:14:02.241Z,8.13
2023-01-10T08:16:30.051Z,10.13
2023-01-10T08:18:57.856Z,12.87
2023-01-10T08:21:25.809Z,7.80
2023-01-10T08:23:55.049Z,8.87
2023-01-10T08:26:23.115Z,10.90
2023-01-10T08:28:52.248Z,16.03
2023-01-10T08:31:20.175Z,9.27
2023-01-10T08:33:47.989Z,7.63
2023-01-10T08:36:17.076Z,6.10
2023-01-10T08:38:44.906Z,12.07
2023-01-10T08:41:13.672Z,10.37
2023-01-10T08:43:41.584Z,11.23
2023-01-10T08:46:11.227Z,11.90
2023-01-10T08:48:39.248Z,17.00
2023-01-10T08:51:09.049Z,11.60
2023-01-10T08:53:37.068Z,8.73
2023-01-10T08:56:05.761Z,10.70
2023-01-10T08:58:33.620Z,12.43
2023-01-10T09:01:04.397Z,11.47
2023-01-10T09:03:33.543Z,13.13
2023-01-10T09:06:02.092Z,16.43
2023-01-10T09:08:30.185Z,17.27
2023-01-10T09:11:00.245Z,13.63
2023-01-10T09:13:29.037Z,8.23
2023-01-10T09:15:57.931Z,14.00
2023-01-10T09:18:26.441Z,10.73
2023-01-10T09:20:55.812Z,12.63
2023-01-10T09:23:25.111Z,13.20
2023-01-10T09:25:54.918Z,7.90
2023-01-10T09:28:24.252Z,11.63
2023-01-10T09:30:52.445Z,13.67
2023-01-10T09:33:20.846Z,7.13
2023-01-10T09:35:48.628Z,14.97
2023-01-10T09:38:22.211Z,8.20
2023-01-10T09:41:22.405Z,11.33
2023-01-10T09:44:02.306Z,11.97
2023-01-10T09:46:38.435Z,9.00
2023-01-10T09:49:16.411Z,17.00
2023-01-10T09:51:46.095Z,13.53
2023-01-10T09:54:20.889Z,10.87
2023-01-10T09:56:49.478Z,9.13
2023-01-10T09:59:19.619Z,13.93
2023-01-10T10:01:49.085Z,12.80
2023-01-10T10:04:24.689Z,18.50
2023-01-10T10:06:53.673Z,8.57
2023-01-10T10:09:27.415Z,10.53
2023-01-10T10:12:08.952Z,9.30
2023-01-10T10:14:50.272Z,16.83
2023-01-10T10:17:32.161Z,7.33
2023-01-10T10:20:11.683Z,15.27
2023-01-10T10:22:49.594Z,9.33
2023-01-10T10:25:45.121Z,13.90
2023-01-10T10:28:31.942Z,13.33
2023-01-10T10:31:11.068Z,7.33
2023-01-10T10:33:51.961Z,9.93
2023-01-10T10:36:25.122Z,11.67
2023-01-10T10:38:54.451Z,9.17
2023-01-10T10:41:33.609Z,12.10
2023-01-10T10:44:07.726Z,13.17
2023-01-10T10:46:35.912Z,8.23
2023-01-10T10:49:12.769Z,11.90
2023-01-10T10:51:47.916Z,12.37
2023-01-10T10:54:16.616Z,9.07
2023-01-10T10:56:47.030Z,6.07
2023-01-10T10:59:19.640Z,11.80
2023-01-10T11:01:49.688Z,12.40
2023-01-10T11:04:22.143Z,11.30
2023-01-10T11:06:51.471Z,12.13
2023-01-10T11:09:23.064Z,11.07
2023-01-10T11:11:54.296Z,11.00
2023-01-10T11:14:44.291Z,8.43
2023-01-10T11:17:25.527Z,8.70
2023-01-10T11:19:58.334Z,11.27
2023-01-10T11:22:27.163Z,9.47
2023-01-10T11:24:57.577Z,16.53
2023-01-10T11:27:29.455Z,10.37
2023-01-10T11:30:00.182Z,12.90
2023-01-10T11:32:35.343Z,8.07
2023-01-10T11:35:07.843Z,8.80
2023-01-10T11:37:37.273Z,8.13
2023-01-10T11:40:19.019Z,10.67
2023-01-10T11:42:48.535Z,7.13
2023-01-10T11:45:25.332Z,19.47
2023-01-10T11:47:57.452Z,6.80
2023-01-10T11:50:28.098Z,14.67
2023-01-10T11:52:57.176Z,14.27
2023-01-10T11:55:27.482Z,7.63
2023-01-10T11:58:02.260Z,9.40
2023-01-10T12:00:36.302Z,6.80
2023-01-10T12:03:15.080Z,10.80
2023-01-10T12:05:49.993Z,6.67
2023-01-10T12:08:26.948Z,10.73
2023-01-10T12:11:01.815Z,9.53
2023-01-10T12:13:43.439Z,9.13
2023-01-10T12:16:22.811Z,11.10
2023-01-10T12:18:52.831Z,12.50
2023-01-10T12:21:26.681Z,7.60
2023-01-10T12:23:56.109Z,12.17
2023-01-10T12:26:26.182Z,10.67
2023-01-10T12:28:59.942Z,9.33
2023-01-10T12:31:31.072Z,11.50
2023-01-10T12:34:05.615Z,10.50
2023-01-10T12:36:44.687Z,14.30
2023-01-10T12:39:20.753Z,7.37
2023-01-10T12:42:13.700Z,8.43
2023-01-10T12:44:44.499Z,7.47
2023-01-10T12:47:20.570Z,7.67
2023-01-10T12:49:54.150Z,11.03
2023-01-10T12:52:32.533Z,11.17
2023-01-10T12:55:03.044Z,10.27
2023-01-10T12:57:33.596Z,6.80
2023-01-10T13:00:07.801Z,16.07
2023-01-10T13:02:43.870Z,13.00
2023-01-10T13:05:19.585Z,8.40
2023-01-10T13:07:50.050Z,8.53
2023-01-10T13:10:21.757Z,8.53
2023-01-10T13:12:57.607Z,8.73
2023-01-10T13:15:31.532Z,8.03
2023-01-10T13:18:04.487Z,6.90
2023-01-10T13:20:41.419Z,8.53
2023-01-10T13:23:31.527Z,7.73
2023-01-10T13:26:05.815Z,11.77
2023-01-10T13:28:35.814Z,7.77
2023-01-10T13:31:07.266Z,10.43
2023-01-10T13:33:41.495Z,10.90
2023-01-10T13:36:12.544Z,9.67
2023-01-10T13:38:51.168Z,12.90
2023-01-10T13:41:37.380Z,12.63
2023-01-10T13:44:08.906Z,8.50
2023-01-10T13:46:50.137Z,7.53
2023-01-10T13:49:49.142Z,10.13
2023-01-10T13:52:41.182Z,5.47
2023-01-10T13:55:34.167Z,6.00
2023-01-10T13:58:03.777Z,9.87
2023-01-10T14:01:13.579Z,10.27
2023-01-10T14:03:50.803Z,6.43
2023-01-10T14:06:41.177Z,7.10
2023-01-10T14:09:47.888Z,9.53
2023-01-10T14:12:34.120Z,3.70
2023-01-10T14:15:06.057Z,4.60
2023-01-10T14:17:35.997Z,8.73
2023-01-10T14:20:22.897Z,5.13
2023-01-10T14:23:07.491Z,6.73
2023-01-10T14:25:37.137Z,9.67
2023-01-10T14:28:07.170Z,8.13
2023-01-10T14:30:38.602Z,8.50
2023-01-10T14:33:13.972Z,5.10
2023-01-10T14:35:47.579Z,6.27
2023-01-10T14:38:21.558Z,5.27
2023-01-10T14:40:52.604Z,7.23
2023-01-10T14:43:24.975Z,7.23
2023-01-10T14:45:59.381Z,8.17
2023-01-10T14:48:30.488Z,5.97
2023-01-10T14:51:18.457Z,9.47
2023-01-10T14:53:46.176Z,7.70
2023-01-10T14:56:21.816Z,5.97
2023-01-10T14:58:49.588Z,7.27
2023-01-10T15:01:23.418Z,5.40
2023-01-10T15:03:52.118Z,4.90
2023-01-10T15:06:21.419Z,5.40
2023-01-10T15:08:57.963Z,8.30
2023-01-10T15:11:28.575Z,4.63
2023-01-10T15:14:03.459Z,4.07
2023-01-10T15:16:32.259Z,8.73
2023-01-10T15:19:00.399Z,4.20
2023-01-10T15:21:29.972Z,3.47
2023-01-10T15:23:57.789Z,2.70
2023-01-10T15:26:30.604Z,4.20
2023-01-10T15:29:12.253Z,6.57
2023-01-10T15:31:41.560Z,5.70
2023-01-10T15:34:12.309Z,2.10
2023-01-10T15:36:46.712Z,5.23
2023-01-10T15:39:26.479Z,3.90
2023-01-10T15:41:59.138Z,3.87
2023-01-10T15:44:38.436Z,3.00
2023-01-10T15:47:07.140Z,2.40
2023-01-10T15:49:34.915Z,4.20
2023-01-10T15:52:04.126Z,6.63
2023-01-10T15:54:34.702Z,2.23
2023-01-10T15:57:07.959Z,2.10
2023-01-10T15:59:39.505Z,2.60
2023-01-10T16:02:22.769Z,3.20
2023-01-10T16:04:53.538Z,1.87
2023-01-10T16:07:27.529Z,1.80
2023-01-10T16:09:58.329Z,2.30
2023-01-10T16:12:52.987Z,2.67
2023-01-10T16:15:23.329Z,1.07
2023-01-10T16:17:52.844Z,2.27
2023-01-10T16:20:23.049Z,1.27
2023-01-10T16:22:52.843Z,2.83
2023-01-10T16:25:30.152Z,2.13
2023-01-10T16:27:58.749Z,15.23
2023-01-10T16:30:29.399Z,1.90
2023-01-10T16:32:58.425Z,3.73
2023-01-10T16:35:26.876Z,3.30
2023-01-10T16:37:58.827Z,3.83
2023-01-10T16:40:29.119Z,2.80
2023-01-10T16:43:14.755Z,6.57
2023-01-10T16:45:42.630Z,2.67
2023-01-10T16:48:11.418Z,2.93
2023-01-10T16:50:41.007Z,3.30
2023-01-10T16:53:12.156Z,6.23
2023-01-10T16:55:43.567Z,3.73
2023-01-10T16:58:13.099Z,3.27
2023-01-10T17:00:43.199Z,4.07
2023-01-10T17:03:17.654Z,4.47
2023-01-10T17:05:45.810Z,2.10
2023-01-10T17:08:18.946Z,4.40
2023-01-10T17:10:48.909Z,3.83
2023-01-10T17:13:23.817Z,2.67
2023-01-10T17:15:51.726Z,1.90
2023-01-10T17:18:19.655Z,4.47
2023-01-10T17:20:47.773Z,9.03
2023-01-10T17:23:17.012Z,8.60
2023-01-10T17:25:47.199Z,4.00
2023-01-10T17:28:15.157Z,4.30
2023-01-10T17:30:43.843Z,3.73
2023-01-10T17:33:12.221Z,2.20
2023-01-10T17:35:41.251Z,4.37
2023-01-10T17:38:11.731Z,3.43
2023-01-10T17:40:42.255Z,3.57
2023-01-10T17:43:11.432Z,3.43
2023-01-10T17:45:40.287Z,3.90
2023-01-10T17:48:08.555Z,2.83
2023-01-10T17:50:36.561Z,4.03
2023-01-10T17:53:04.339Z,3.50
2023-01-10T17:55:32.301Z,2.87
2023-01-10T17:58:02.771Z,4.07
2023-01-10T18:00:32.061Z,4.27
2023-01-10T18:03:00.116Z,5.50
2023-01-10T18:05:27.998Z,4.40
2023-01-10T18:07:56.082Z,3.43
2023-01-10T18:10:24.048Z,3.23
2023-01-10T18:12:51.857Z,3.67
2023-01-10T18:15:21.111Z,6.63
2023-01-10T18:17:49.026Z,3.20
2023-01-10T18:20:17.045Z,2.77
2023-01-10T18:23:04.683Z,5.53
2023-01-10T18:25:32.597Z,4.33
2023-01-10T18:28:00.544Z,3.23
2023-01-10T18:30:29.647Z,4.33
2023-01-10T18:32:58.015Z,6.17
2023-01-10T18:35:26.840Z,3.17
2023-01-10T18:37:56.052Z,3.87
2023-01-10T18:40:23.787Z,3.73
2023-01-10T18:42:53.692Z,3.17
2023-01-10T18:45:22.701Z,4.03
2023-01-10T18:47:55.308Z,3.37
2023-01-10T18:50:23.068Z,4.00
2023-01-10T18:52:51.573Z,5.60
2023-01-10T18:55:19.444Z,5.00
2023-01-10T18:57:48.182Z,3.50
2023-01-10T19:00:16.802Z,2.97
2023-01-10T19:02:44.649Z,6.63
2023-01-10T19:05:14.903Z,4.07
2023-01-10T19:07:42.924Z,3.53
2023-01-10T19:10:11.976Z,4.67
2023-01-10T19:12:40.562Z,3.83
2023-01-10T19:15:10.178Z,6.03
2023-01-10T19:17:38.111Z,4.40
2023-01-10T19:20:06.834Z,3.13
2023-01-10T19:22:36.112Z,6.30
2023-01-10T19:25:04.549Z,4.10
2023-01-10T19:27:33.125Z,4.30
2023-01-10T19:30:01.647Z,11.70
2023-01-10T19:32:29.517Z,8.80
2023-01-10T19:34:57.247Z,6.00
2023-01-10T19:37:25.096Z,4.47
2023-01-10T19:39:54.238Z,2.80
2023-01-10T19:42:22.446Z,7.10
2023-01-10T19:44:50.919Z,5.30
2023-01-10T19:47:18.916Z,4.43
2023-01-10T19:49:46.656Z,6.73
2023-01-10T19:52:14.555Z,5.97
2023-01-10T19:54:44.044Z,3.90
2023-01-10T19:57:13.188Z,5.80
2023-01-10T19:59:41.765Z,4.10
2023-01-10T20:02:13.608Z,6.80
2023-01-10T20:04:41.402Z,5.27
2023-01-10T20:07:09.288Z,3.97
2023-01-10T20:09:37.066Z,5.33
2023-01-10T20:12:05.316Z,7.40
2023-01-10T20:14:34.470Z,3.77
2023-01-10T20:17:02.478Z,3.80
2023-01-10T20:19:30.233Z,4.90
2023-01-10T20:21:58.030Z,6.87
2023-01-10T20:24:25.957Z,5.60
2023-01-10T20:26:53.825Z,4.17
2023-01-10T20:29:21.780Z,4.97
2023-01-10T20:31:53.331Z,5.83
2023-01-10T20:34:22.779Z,4.93
2023-01-10T20:36:52.577Z,4.40
2023-01-10T20:39:20.582Z,4.27
2023-01-10T20:41:48.411Z,5.17
2023-01-10T20:44:16.211Z,3.13
2023-01-10T20:46:44.068Z,7.30
2023-01-10T20:49:13.188Z,5.27
2023-01-10T20:51:41.009Z,5.70
2023-01-10T20:54:09.229Z,4.27
2023-01-10T20:56:38.947Z,7.80
2023-01-10T20:59:06.772Z,3.90
2023-01-10T21:01:35.811Z,5.60
2023-01-10T21:04:05.135Z,4.40
2023-01-10T21:06:35.426Z,8.07
2023-01-10T21:09:04.314Z,5.97
2023-01-10T21:11:36.742Z,6.53
2023-01-10T21:14:13.068Z,4.70
2023-01-10T21:16:40.785Z,7.60
2023-01-10T21:19:10.437Z,10.93
2023-01-10T21:21:40.849Z,4.57
2023-01-10T21:24:10.014Z,7.03
2023-01-10T21:26:37.843Z,5.53
2023-01-10T21:29:05.667Z,11.07
2023-01-10T21:31:33.478Z,4.30
2023-01-10T21:34:01.255Z,7.20
2023-01-10T21:36:28.970Z,4.07
2023-01-10T21:38:58.134Z,4.60
2023-01-10T21:41:43.261Z,4.30
2023-01-10T21:44:11.028Z,5.87
2023-01-10T21:46:38.955Z,3.00
2023-01-10T21:49:06.979Z,4.80
2023-01-10T21:51:34.772Z,2.50
2023-01-10T21:54:03.961Z,3.37
2023-01-10T21:56:31.793Z,4.10
2023-01-10T21:58:59.693Z,4.37
2023-01-10T22:01:27.965Z,3.10
2023-01-10T22:03:55.828Z,4.83
2023-01-10T22:06:23.770Z,3.20
2023-01-10T22:08:52.865Z,2.97
2023-01-10T22:11:22.094Z,5.33
2023-01-10T22:13:51.872Z,5.53
2023-01-10T22:16:19.773Z,6.23
2023-01-10T22:18:47.601Z,2.73
2023-01-10T22:21:15.583Z,5.73
2023-01-10T22:23:45.272Z,4.20
2023-01-10T22:26:14.918Z,3.80
2023-01-10T22:28:44.311Z,5.30
2023-01-10T22:31:12.207Z,3.93
2023-01-10T22:33:39.985Z,3.10
2023-01-10T22:36:10.359Z,4.97
2023-01-10T22:38:38.167Z,5.33
2023-01-10T22:41:07.272Z,2.23
2023-01-10T22:43:35.196Z,4.07
2023-01-10T22:46:04.955Z,3.47
2023-01-10T22:48:32.741Z,3.90
2023-01-10T22:51:01.405Z,4.47
2023-01-10T22:53:29.422Z,5.47
2023-01-10T22:56:00.021Z,2.97
2023-01-10T22:58:27.892Z,1.97
2023-01-10T23:00:55.718Z,3.53
2023-01-10T23:03:25.245Z,3.43
2023-01-10T23:05:55.257Z,6.10
2023-01-10T23:08:23.233Z,2.53
2023-01-10T23:10:51.249Z,5.57
2023-01-10T23:13:18.957Z,5.50
2023-01-10T23:15:46.745Z,2.97
2023-01-10T23:18:16.391Z,4.43
2023-01-10T23:20:45.583Z,6.07
2023-01-10T23:23:13.377Z,3.53
2023-01-10T23:25:41.091Z,2.77
2023-01-10T23:28:09.073Z,3.80
2023-01-10T23:30:37.135Z,3.20
2023-01-10T23:33:04.963Z,5.67
2023-01-10T23:35:32.731Z,3.43
2023-01-10T23:38:01.805Z,3.30
2023-01-10T23:40:29.554Z,2.47
2023-01-10T23:42:57.306Z,3.70
2023-01-10T23:45:25.044Z,4.87
2023-01-10T23:47:52.736Z,4.50
2023-01-10T23:50:21.775Z,1.40
2023-01-10T23:52:49.550Z,4.00
2023-01-10T23:55:18.624Z,4.47
2023-01-10T23:57:48.896Z,4.23
